createdAt,value
2023-01-17T15:21:08.313Z,98754.22
2023-01-17T15:22:46.113Z,98755.94
2023-01-17T15:24:23.571Z,98761.97
2023-01-17T15:25:58.581Z,98755.06
2023-01-17T15:27:36.997Z,98755.19
2023-01-17T15:29:28.246Z,98757.75
2023-01-17T15:31:04.789Z,98759.56
2023-01-17T15:32:39.376Z,98766.50
2023-01-17T15:34:27.334Z,98765.69
2023-01-17T15:36:09.149Z,98762.31
2023-01-17T15:37:54.892Z,98758.00
2023-01-17T15:39:32.975Z,98766.66
2023-01-17T15:42:05.297Z,98766.69
2023-01-17T15:43:23.414Z,98771.91
2023-01-17T15:44:59.978Z,98770.25
2023-01-17T15:46:43.110Z,98771.19
2023-01-17T15:49:06.667Z,98782.44
2023-01-17T15:50:57.886Z,98782.50
2023-01-17T15:52:40.467Z,98789.44
2023-01-17T15:54:25.961Z,98792.03
2023-01-17T15:56:00.967Z,98780.06
2023-01-17T15:57:39.399Z,98784.41
2023-01-17T15:59:35.870Z,98787.03
2023-01-17T16:01:16.382Z,98785.34
2023-01-17T16:02:55.719Z,98788.84
2023-01-17T16:04:39.174Z,98790.63
2023-01-17T16:06:37.290Z,98788.97
2023-01-17T16:08:16.412Z,98790.75
2023-01-17T16:09:49.394Z,98795.09
2023-01-17T16:11:21.917Z,98794.28
2023-01-17T16:13:05.157Z,98797.75
2023-01-17T16:15:11.142Z,98795.22
2023-01-17T16:16:52.962Z,98797.94
2023-01-17T16:18:28.013Z,98797.09
2023-01-17T16:20:00.305Z,98805.72
2023-01-17T16:21:34.537Z,98802.34
2023-01-17T16:23:06.759Z,98810.13
2023-01-17T16:24:41.969Z,98812.72
2023-01-17T16:26:14.224Z,98808.47
2023-01-17T16:27:46.646Z,98810.25
2023-01-17T16:29:18.877Z,98806.84
2023-01-17T16:30:56.245Z,98809.47
2023-01-17T16:32:28.511Z,98806.94
2023-01-17T16:34:00.498Z,98812.16
2023-01-17T16:35:36.824Z,98811.34
2023-01-17T16:37:11.028Z,98810.50
2023-01-17T16:38:46.222Z,98812.22
2023-01-17T16:40:23.044Z,98812.25
2023-01-17T16:42:01.907Z,98811.44
2023-01-17T16:43:33.878Z,98814.03
2023-01-17T16:45:06.364Z,98809.75
2023-01-17T16:46:38.913Z,98814.13
2023-01-17T16:48:19.314Z,98808.09
2023-01-17T16:49:51.471Z,98810.72
2023-01-17T16:51:23.513Z,98809.00
2023-01-17T16:52:57.127Z,98811.59
2023-01-17T16:54:31.514Z,98809.88
2023-01-17T16:56:10.297Z,98818.50
2023-01-17T16:57:44.639Z,98822.00
2023-01-17T16:59:16.694Z,98821.13
2023-01-17T17:00:48.912Z,98829.75
2023-01-17T17:02:20.999Z,98822.88
2023-01-17T17:03:52.982Z,98830.63
2023-01-17T17:05:26.216Z,98826.34
2023-01-17T17:06:58.287Z,98820.34
2023-01-17T17:10:29.740Z,98826.41
2023-01-17T17:12:01.808Z,98828.13
2023-01-17T17:13:36.984Z,98826.47
2023-01-17T17:15:13.547Z,98827.31
2023-01-17T17:16:45.599Z,98830.78
2023-01-17T17:18:37.438Z,98831.66
2023-01-17T17:20:15.113Z,98833.41
2023-01-17T17:21:47.179Z,98840.28
2023-01-17T17:23:19.222Z,98834.28
2023-01-17T17:24:51.887Z,98837.75
2023-01-17T17:26:34.823Z,98838.63
2023-01-17T17:28:06.879Z,98842.97
2023-01-17T17:29:41.521Z,98843.84
2023-01-17T17:31:13.505Z,98846.41
2023-01-17T17:32:46.831Z,98849.88
2023-01-17T17:34:21.012Z,98862.75
2023-01-17T17:35:53.046Z,98854.19
2023-01-17T17:37:28.902Z,98861.06
2023-01-17T17:39:04.301Z,98856.75
2023-01-17T17:40:38.656Z,98853.34
2023-01-17T17:42:14.037Z,98860.22
2023-01-17T17:43:46.150Z,98866.25
2023-01-17T17:45:18.108Z,98865.41
2023-01-17T17:46:51.569Z,98863.69
2023-01-17T17:48:26.883Z,98874.03
2023-01-17T17:50:00.649Z,98868.88
2023-01-17T17:51:50.720Z,98878.31
2023-01-17T17:53:28.177Z,98877.47
2023-01-17T17:55:00.275Z,98880.91
2023-01-17T17:56:40.205Z,98886.06
2023-01-17T17:58:29.930Z,98889.50
2023-01-17T18:00:05.830Z,98887.78
2023-01-17T18:01:41.136Z,98881.75
2023-01-17T18:03:13.218Z,98889.50
2023-01-17T18:04:49.179Z,98886.06
2023-01-17T18:06:22.143Z,98889.50
2023-01-17T18:07:54.480Z,98889.50
2023-01-17T18:09:32.037Z,98899.81
2023-01-17T18:11:25.862Z,98897.25
2023-01-17T18:12:58.169Z,98893.84
2023-01-17T18:14:34.625Z,98900.72
2023-01-17T18:16:10.106Z,98888.69
2023-01-17T18:17:45.201Z,98894.72
2023-01-17T18:19:19.974Z,98905.00
2023-01-17T18:21:14.405Z,98906.75
2023-01-17T18:22:46.786Z,98903.28
2023-01-17T18:24:32.549Z,98913.59
2023-01-17T18:26:10.387Z,98906.72
2023-01-17T18:27:59.599Z,98905.00
2023-01-17T18:29:35.276Z,98918.78
2023-01-17T18:31:49.804Z,98911.91
2023-01-17T18:36:31.293Z,98917.06
2023-01-17T18:36:56.073Z,98913.63
2023-01-17T18:38:26.102Z,98922.22
2023-01-17T18:40:07.282Z,98922.22
2023-01-17T18:41:56.430Z,98916.22
2023-01-17T18:43:33.800Z,98919.66
2023-01-17T18:45:07.918Z,98920.53
2023-01-17T18:46:59.379Z,98926.53
2023-01-17T18:48:44.421Z,98920.53
2023-01-17T18:50:35.912Z,98929.94
2023-01-17T18:54:35.104Z,98931.69
2023-01-17T18:56:11.201Z,98934.25
2023-01-17T18:57:45.424Z,98936.81
2023-01-17T18:59:22.620Z,98930.78
2023-01-17T19:01:15.462Z,98926.50
2023-01-17T19:02:50.663Z,98940.22
2023-01-17T19:04:22.603Z,98935.94
2023-01-17T19:05:55.169Z,98934.22
2023-01-17T19:07:32.728Z,98938.53
2023-01-17T19:09:13.105Z,98938.53
2023-01-17T19:10:45.154Z,98941.09
2023-01-17T19:12:17.111Z,98947.94
2023-01-17T19:13:53.685Z,98945.38
2023-01-17T19:15:25.582Z,98949.66
2023-01-17T19:16:57.721Z,98953.09
2023-01-17T19:18:31.006Z,98941.94
2023-01-17T19:20:03.156Z,98944.53
2023-01-17T19:21:37.659Z,98953.97
2023-01-17T19:23:12.011Z,98957.38
2023-01-17T19:24:44.071Z,98962.53
2023-01-17T19:26:17.606Z,98963.38
2023-01-17T19:27:49.519Z,98968.53
2023-01-17T19:29:22.810Z,98970.25
2023-01-17T19:31:07.715Z,98971.09
2023-01-17T19:32:39.635Z,98966.81
2023-01-17T19:34:14.077Z,98972.81
2023-01-17T19:35:46.040Z,98973.66
2023-01-17T19:37:17.947Z,98973.66
2023-01-17T19:39:03.439Z,98971.06
2023-01-17T19:40:36.265Z,98966.78
2023-01-17T19:42:15.547Z,98977.94
2023-01-17T19:43:47.986Z,98977.94
2023-01-17T19:45:22.859Z,98981.34
2023-01-17T19:46:56.615Z,98976.22
2023-01-17T19:48:30.835Z,98987.34
2023-01-17T19:50:05.041Z,98991.63
2023-01-17T19:51:37.319Z,98989.03
2023-01-17T19:53:09.269Z,98990.72
2023-01-17T19:54:43.682Z,98988.16
2023-01-17T19:56:18.449Z,98986.47
2023-01-17T19:57:50.956Z,98995.88
2023-01-17T19:59:23.009Z,98989.00
2023-01-17T20:00:55.389Z,98996.72
2023-01-17T20:02:28.353Z,98992.41
2023-01-17T20:04:00.901Z,98983.84
2023-01-17T20:05:33.881Z,98989.00
2023-01-17T20:07:05.671Z,98990.69
2023-01-17T20:08:38.046Z,98988.13
2023-01-17T20:10:14.800Z,98990.69
2023-01-17T20:11:49.992Z,98987.25
2023-01-17T20:13:22.087Z,98988.94
2023-01-17T20:14:59.001Z,98988.94
2023-01-17T20:16:31.981Z,98994.94
2023-01-17T20:18:03.935Z,99002.66
2023-01-17T20:19:36.054Z,99006.91
2023-01-17T20:21:10.184Z,99007.75
2023-01-17T20:22:43.585Z,99015.47
2023-01-17T20:24:17.965Z,99010.34
2023-01-17T20:25:59.164Z,99012.06
2023-01-17T20:27:48.062Z,99006.91
2023-01-17T20:29:27.186Z,99005.22
2023-01-17T20:31:45.366Z,99007.78
2023-01-17T20:33:36.589Z,99012.94
2023-01-17T20:35:11.599Z,99016.38
2023-01-17T20:36:43.625Z,99013.78
2023-01-17T20:38:21.036Z,99019.81
2023-01-17T20:39:56.054Z,99018.97
2023-01-17T20:41:41.296Z,99025.81
2023-01-17T20:43:22.791Z,99024.09
2023-01-17T20:44:57.105Z,99024.09
2023-01-17T20:46:48.073Z,99024.97
2023-01-17T20:48:20.978Z,99030.09
2023-01-17T20:49:59.659Z,99027.50
2023-01-17T20:51:59.356Z,99026.66
2023-01-17T20:53:32.479Z,99032.66
2023-01-17T20:55:07.839Z,99026.66
2023-01-17T20:56:42.499Z,99032.66
2023-01-17T20:58:14.741Z,99030.94
2023-01-17T20:59:48.625Z,99033.53
2023-01-17T21:01:21.501Z,99024.97
2023-01-17T21:02:57.817Z,99031.81
2023-01-17T21:04:30.659Z,99037.81
2023-01-17T21:06:18.924Z,99037.81
2023-01-17T21:07:50.914Z,99033.53
2023-01-17T21:09:23.093Z,99045.50
2023-01-17T21:10:55.115Z,99044.63
2023-01-17T21:12:27.209Z,99050.63
2023-01-17T21:14:34.558Z,99042.03
2023-01-17T21:15:59.411Z,99047.13
2023-01-17T21:17:43.190Z,99053.13
2023-01-17T21:19:25.682Z,99052.28
2023-01-17T21:21:09.085Z,99048.84
2023-01-17T21:22:44.136Z,99038.53
2023-01-17T21:24:19.323Z,99037.69
2023-01-17T21:25:55.745Z,99032.53
2023-01-17T21:27:31.812Z,99041.09
2023-01-17T21:29:03.911Z,99039.38
2023-01-17T21:30:38.871Z,99041.97
2023-01-17T21:32:10.874Z,99039.41
2023-01-17T21:33:45.798Z,99041.13
2023-01-17T21:35:17.709Z,99034.28
2023-01-17T21:36:49.808Z,99031.72
2023-01-17T21:38:22.946Z,99036.00
2023-01-17T21:39:57.532Z,99029.13
2023-01-17T21:41:32.479Z,99039.41
2023-01-17T21:43:04.625Z,99050.53
2023-01-17T21:44:36.988Z,99047.97
2023-01-17T21:46:16.501Z,99046.25
2023-01-17T21:47:50.111Z,99051.38
2023-01-17T21:49:22.275Z,99048.75
2023-01-17T21:50:56.707Z,99052.19
2023-01-17T21:52:30.303Z,99047.03
2023-01-17T21:54:02.263Z,99056.47
2023-01-17T21:55:59.203Z,99055.59
2023-01-17T21:57:49.849Z,99050.44
2023-01-17T21:59:21.957Z,99052.13
2023-01-17T22:01:09.270Z,99056.38
2023-01-17T22:02:48.892Z,99054.66
2023-01-17T22:05:25.698Z,99052.06
2023-01-17T22:06:42.634Z,99055.50
2023-01-17T22:08:37.478Z,99057.22
2023-01-17T22:10:48.818Z,99060.63
2023-01-17T22:14:48.540Z,99066.59
2023-01-17T22:16:23.561Z,99070.03
2023-01-17T22:17:55.821Z,99072.63
2023-01-17T22:19:27.930Z,99076.91
2023-01-17T22:21:04.485Z,99079.50
2023-01-17T22:22:37.248Z,99074.31
2023-01-17T22:24:11.699Z,99074.34
2023-01-17T22:26:26.585Z,99080.34
2023-01-17T22:28:08.114Z,99071.75
2023-01-17T22:29:43.753Z,99072.59
2023-01-17T22:31:52.074Z,99076.88
2023-01-17T22:33:24.353Z,99078.63
2023-01-17T22:37:44.732Z,99080.31
2023-01-17T22:39:20.168Z,99082.03
2023-01-17T22:40:52.234Z,99082.03
2023-01-17T22:42:26.449Z,99081.16
2023-01-17T22:44:11.624Z,99082.00
2023-01-17T22:45:46.218Z,99083.72
2023-01-17T22:47:23.612Z,99077.72
2023-01-17T22:48:59.167Z,99078.56
2023-01-17T22:50:31.226Z,99087.13
2023-01-17T22:52:26.308Z,99092.28
2023-01-17T22:54:37.954Z,99080.28
2023-01-17T22:56:25.601Z,99080.28
2023-01-17T22:58:40.791Z,99084.53
2023-01-17T23:00:30.573Z,99084.53
2023-01-17T23:02:15.758Z,99089.69
2023-01-17T23:36:41.750Z,99086.88
2023-01-17T23:38:28.791Z,99082.56
2023-01-17T23:40:04.012Z,99091.09
2023-01-17T23:41:58.266Z,99085.97
2023-01-17T23:43:31.304Z,99087.63
2023-01-17T23:45:16.614Z,99075.63
2023-01-17T23:46:59.293Z,99085.91
2023-01-17T23:48:44.124Z,99084.19
2023-01-17T23:50:32.348Z,99081.63
2023-01-17T23:54:55.664Z,99084.22
2023-01-17T23:56:29.903Z,99085.91
2023-01-17T23:58:05.358Z,99082.50
2023-01-17T23:59:39.587Z,99081.66
